createdAt,value
2019-05-18T00:00:35.409Z,12.48
2019-05-18T00:03:05.553Z,12.41
2019-05-18T00:05:35.627Z,12.44
2019-05-18T00:08:05.749Z,12.44
2019-05-18T00:10:35.761Z,12.32
2019-05-18T00:13:05.864Z,12.15
2019-05-18T00:15:35.927Z,12.24
2019-05-18T00:18:05.938Z,12.22
2019-05-18T00:20:35.934Z,12.18
2019-05-18T00:23:06.094Z,12.29
2019-05-18T00:25:37.014Z,12.14
2019-05-18T00:28:06.988Z,12.14
2019-05-18T00:30:37.085Z,12.23
2019-05-18T00:33:07.157Z,12.09
2019-05-18T00:35:37.220Z,12.12
2019-05-18T00:38:07.322Z,12.04
2019-05-18T00:40:38.376Z,11.91
2019-05-18T00:43:08.492Z,12.04
2019-05-18T00:45:38.558Z,11.98
2019-05-18T00:48:08.694Z,12.06
2019-05-18T00:50:39.874Z,12.13
2019-05-18T00:53:09.903Z,11.97
2019-05-18T00:55:39.991Z,11.97
2019-05-18T00:58:10.956Z,12.05
2019-05-18T01:00:40.944Z,12.03
2019-05-18T01:03:10.999Z,11.95
2019-05-18T01:05:41.063Z,12.09
2019-05-18T01:08:12.059Z,11.93
2019-05-18T01:10:43.705Z,11.88
2019-05-18T01:13:13.801Z,11.91
2019-05-18T01:15:43.841Z,12.09
2019-05-18T01:18:13.845Z,11.77
2019-05-18T01:20:44.327Z,11.87
2019-05-18T01:23:14.595Z,11.75
2019-05-18T01:25:44.596Z,11.68
2019-05-18T01:28:14.656Z,11.56
2019-05-18T01:30:45.376Z,11.36
2019-05-18T01:33:15.411Z,11.63
2019-05-18T01:35:46.155Z,11.96
2019-05-18T01:38:16.156Z,11.74
2019-05-18T01:40:46.286Z,11.68
2019-05-18T01:43:16.288Z,11.77
2019-05-18T01:45:46.284Z,11.67
2019-05-18T01:48:16.266Z,11.81
2019-05-18T01:50:46.261Z,11.98
2019-05-18T01:53:16.303Z,11.89
2019-05-18T01:55:46.360Z,11.71
2019-05-18T01:58:16.449Z,11.76
2019-05-18T02:00:47.463Z,11.61
2019-05-18T02:03:17.473Z,11.80
2019-05-18T02:05:47.487Z,11.80
2019-05-18T02:08:17.493Z,11.67
2019-05-18T02:10:47.614Z,11.82
2019-05-18T02:13:18.156Z,11.71
2019-05-18T02:15:48.216Z,11.78
2019-05-18T02:18:28.661Z,11.85
2019-05-18T02:20:50.011Z,11.77
2019-05-18T02:23:20.017Z,11.76
2019-05-18T02:25:50.040Z,11.66
2019-05-18T02:28:20.051Z,11.72
2019-05-18T02:30:50.173Z,11.73
2019-05-18T02:33:20.145Z,11.66
2019-05-18T02:35:50.166Z,11.71
2019-05-18T02:38:20.157Z,11.65
2019-05-18T02:40:50.242Z,11.62
2019-05-18T02:43:20.302Z,11.69
2019-05-18T02:45:50.314Z,11.63
2019-05-18T02:48:20.372Z,11.53
2019-05-18T02:50:50.368Z,11.60
2019-05-18T02:53:20.397Z,11.64
2019-05-18T02:55:50.399Z,11.45
2019-05-18T02:58:20.485Z,11.50
2019-05-18T03:00:50.626Z,11.62
2019-05-18T03:03:20.755Z,11.64
2019-05-18T03:05:50.742Z,11.33
2019-05-18T03:08:20.724Z,11.63
2019-05-18T03:10:50.869Z,11.32
2019-05-18T03:13:20.933Z,11.40
2019-05-18T03:15:51.097Z,11.32
2019-05-18T03:18:21.169Z,11.35
2019-05-18T03:20:51.221Z,11.23
2019-05-18T03:23:21.304Z,11.33
2019-05-18T03:25:51.343Z,11.44
2019-05-18T03:28:21.333Z,11.38
2019-05-18T03:30:51.333Z,11.17
2019-05-18T03:33:27.652Z,11.26
2019-05-18T03:35:53.108Z,11.22
2019-05-18T03:38:23.198Z,11.17
2019-05-18T03:40:53.224Z,10.98
2019-05-18T03:43:23.221Z,10.98
2019-05-18T03:45:53.979Z,10.88
2019-05-18T03:48:24.141Z,10.81
2019-05-18T03:50:54.220Z,10.83
2019-05-18T03:53:24.323Z,10.87
2019-05-18T03:55:54.353Z,10.83
2019-05-18T03:58:24.351Z,10.79
2019-05-18T04:00:54.348Z,10.66
2019-05-18T04:03:24.450Z,10.65
2019-05-18T04:05:54.459Z,10.49
2019-05-18T04:08:24.451Z,10.59
2019-05-18T04:10:54.539Z,10.40
2019-05-18T04:13:24.538Z,10.53
2019-05-18T04:15:54.560Z,10.75
2019-05-18T04:18:24.552Z,10.67
2019-05-18T04:20:54.547Z,10.47
2019-05-18T04:23:24.586Z,10.53
2019-05-18T04:25:54.577Z,10.54
2019-05-18T04:28:24.576Z,10.50
2019-05-18T04:30:54.680Z,10.51
2019-05-18T04:33:24.661Z,10.28
2019-05-18T04:36:14.772Z,10.39
2019-05-18T04:38:45.188Z,10.30
2019-05-18T04:41:15.197Z,10.36
2019-05-18T04:43:45.280Z,10.54
2019-05-18T04:46:15.321Z,10.40
2019-05-18T04:48:45.473Z,10.55
2019-05-18T04:51:15.498Z,10.49
2019-05-18T04:53:45.572Z,10.68
2019-05-18T04:56:15.577Z,10.71
2019-05-18T04:58:45.619Z,10.70
2019-05-18T05:01:16.227Z,10.61
2019-05-18T05:03:46.293Z,10.77
2019-05-18T05:06:16.273Z,10.80
2019-05-18T05:08:46.337Z,10.61
2019-05-18T05:11:16.348Z,10.50
2019-05-18T05:13:46.348Z,10.61
2019-05-18T05:16:17.431Z,10.68
2019-05-18T05:18:47.505Z,10.69
2019-05-18T05:21:17.493Z,10.57
2019-05-18T05:23:47.577Z,10.73
2019-05-18T05:26:17.574Z,10.78
2019-05-18T05:28:47.591Z,10.88
2019-05-18T05:31:17.625Z,10.80
2019-05-18T05:34:07.739Z,10.79
2019-05-18T05:36:37.789Z,10.67
2019-05-18T05:39:07.898Z,10.57
2019-05-18T05:41:38.001Z,10.67
2019-05-18T05:44:07.987Z,10.52
2019-05-18T05:46:38.092Z,10.62
2019-05-18T05:49:08.155Z,10.70
2019-05-18T05:51:38.269Z,10.76
2019-05-18T05:54:08.298Z,10.62
2019-05-18T05:56:38.333Z,10.75
2019-05-18T05:59:08.328Z,10.58
2019-05-18T06:01:38.485Z,10.57
2019-05-18T06:04:08.457Z,10.42
2019-05-18T06:06:38.473Z,10.56
2019-05-18T06:09:08.538Z,10.74
2019-05-18T06:11:38.529Z,10.76
2019-05-18T06:14:08.605Z,10.67
2019-05-18T06:16:38.623Z,10.56
2019-05-18T06:19:08.673Z,10.61
2019-05-18T06:21:38.744Z,10.63
2019-05-18T06:24:08.780Z,10.58
2019-05-18T06:26:39.829Z,10.64
2019-05-18T06:29:09.901Z,10.71
2019-05-18T06:31:39.888Z,10.88
2019-05-18T06:34:09.883Z,10.94
2019-05-18T06:36:39.872Z,10.97
2019-05-18T06:39:09.887Z,10.94
2019-05-18T06:41:39.971Z,10.90
2019-05-18T06:44:09.907Z,10.59
2019-05-18T06:46:39.936Z,10.95
2019-05-18T06:49:10.050Z,11.04
2019-05-18T06:51:40.189Z,10.94
2019-05-18T06:54:10.348Z,10.86
2019-05-18T06:56:40.777Z,10.94
2019-05-18T06:59:12.012Z,11.02
2019-05-18T07:01:42.099Z,11.03
2019-05-18T07:04:12.092Z,11.04
2019-05-18T07:06:42.149Z,11.01
2019-05-18T07:09:14.239Z,11.03
2019-05-18T07:11:43.874Z,11.01
2019-05-18T07:14:25.161Z,10.95
2019-05-18T07:16:45.901Z,11.12
2019-05-18T07:19:15.897Z,11.03
2019-05-18T07:21:45.988Z,11.12
2019-05-18T07:24:16.218Z,11.09
2019-05-18T07:26:46.235Z,11.08
2019-05-18T07:29:16.277Z,10.75
2019-05-18T07:31:46.283Z,10.79
2019-05-18T07:34:16.531Z,10.86
2019-05-18T07:36:46.532Z,12.95
2019-05-18T07:39:16.618Z,14.48
2019-05-18T07:41:47.268Z,11.88
2019-05-18T07:44:19.174Z,10.99
2019-05-18T07:46:49.237Z,10.14
2019-05-18T07:49:19.258Z,10.64
2019-05-18T07:51:49.356Z,10.68
2019-05-18T07:54:20.414Z,10.51
2019-05-18T07:56:50.452Z,10.57
2019-05-18T07:59:20.446Z,10.77
2019-05-18T08:01:50.468Z,10.77
2019-05-18T08:04:20.527Z,10.88
2019-05-18T08:06:50.602Z,10.84
2019-05-18T08:09:20.696Z,11.01
2019-05-18T08:11:50.721Z,11.08
2019-05-18T08:14:20.729Z,11.02
2019-05-18T08:16:50.745Z,10.95
2019-05-18T08:19:20.770Z,10.96
2019-05-18T08:21:53.227Z,10.91
2019-05-18T08:24:22.482Z,11.02
2019-05-18T08:26:52.500Z,11.08
2019-05-18T08:29:22.577Z,11.12
2019-05-18T08:31:52.539Z,11.22
2019-05-18T08:34:22.522Z,11.14
2019-05-18T08:36:52.560Z,11.26
2019-05-18T08:39:22.539Z,11.40
2019-05-18T08:41:52.579Z,11.45
2019-05-18T08:44:22.573Z,11.56
2019-05-18T08:46:52.655Z,11.72
2019-05-18T08:49:22.731Z,11.88
2019-05-18T08:52:07.208Z,11.94
2019-05-18T08:54:24.449Z,11.81
2019-05-18T08:56:54.457Z,11.98
2019-05-18T08:59:24.482Z,11.94
2019-05-18T09:01:54.503Z,11.80
2019-05-18T09:04:24.487Z,17.51
2019-05-18T09:06:54.539Z,18.21
2019-05-18T09:09:24.529Z,17.34
2019-05-18T09:11:54.571Z,17.22
2019-05-18T09:14:24.574Z,14.73
2019-05-18T09:16:54.670Z,13.01
2019-05-18T09:19:24.657Z,12.64
2019-05-18T09:21:54.645Z,12.35
2019-05-18T09:24:24.661Z,12.15
2019-05-18T09:26:54.702Z,12.33
2019-05-18T09:29:26.021Z,12.49
2019-05-18T09:31:56.006Z,12.60
2019-05-18T09:34:26.026Z,12.63
2019-05-18T09:36:56.075Z,12.72
2019-05-18T09:39:26.040Z,12.75
2019-05-18T09:41:56.067Z,12.93
2019-05-18T09:44:26.050Z,12.76
2019-05-18T09:46:56.114Z,12.82
2019-05-18T09:49:26.101Z,12.72
2019-05-18T09:51:56.142Z,12.69
2019-05-18T09:54:26.265Z,12.54
2019-05-18T09:56:56.407Z,12.58
2019-05-18T09:59:26.396Z,12.70
2019-05-18T10:01:56.489Z,12.69
2019-05-18T10:04:27.535Z,12.66
2019-05-18T10:06:57.566Z,12.72
2019-05-18T10:09:37.043Z,12.73
2019-05-18T10:11:59.337Z,12.53
2019-05-18T10:14:29.295Z,12.72
2019-05-18T10:16:59.294Z,12.79
2019-05-18T10:19:29.424Z,12.59
2019-05-18T10:21:59.421Z,12.59
2019-05-18T10:24:29.523Z,12.80
2019-05-18T10:26:59.519Z,12.80
2019-05-18T10:29:29.546Z,12.88
2019-05-18T10:32:00.604Z,12.93
2019-05-18T10:34:30.638Z,13.00
2019-05-18T10:37:00.678Z,12.98
2019-05-18T10:39:30.677Z,13.01
2019-05-18T10:42:00.721Z,13.88
2019-05-18T10:44:30.704Z,14.95
2019-05-18T10:47:00.726Z,13.77
2019-05-18T10:49:30.724Z,13.15
2019-05-18T10:52:00.739Z,18.87
2019-05-18T10:54:30.841Z,15.15
2019-05-18T10:57:00.826Z,17.33
2019-05-18T10:59:30.907Z,19.63
2019-05-18T11:02:00.915Z,20.03
2019-05-18T11:04:31.099Z,19.02
2019-05-18T11:07:01.205Z,18.97
2019-05-18T11:09:31.448Z,18.91
2019-05-18T11:12:01.403Z,19.08
2019-05-18T11:14:31.456Z,17.36
2019-05-18T11:17:01.441Z,15.33
2019-05-18T11:19:31.479Z,16.70
2019-05-18T11:22:01.493Z,17.83
2019-05-18T11:24:31.578Z,17.86
2019-05-18T11:27:01.559Z,18.03
2019-05-18T11:29:31.599Z,15.68
2019-05-18T11:32:01.629Z,14.69
2019-05-18T11:34:31.614Z,14.62
2019-05-18T11:37:03.260Z,17.65
2019-05-18T11:39:33.416Z,19.90
2019-05-18T11:42:03.536Z,20.10
2019-05-18T11:44:33.587Z,15.46
2019-05-18T11:47:03.590Z,15.07
2019-05-18T11:49:33.699Z,14.63
2019-05-18T11:52:03.701Z,14.58
2019-05-18T11:54:34.719Z,13.95
2019-05-18T11:57:04.769Z,13.66
2019-05-18T11:59:34.832Z,13.66
2019-05-18T12:02:05.007Z,13.96
2019-05-18T12:04:35.032Z,14.05
2019-05-18T12:07:06.337Z,13.92
2019-05-18T12:09:36.359Z,14.24
2019-05-18T12:12:06.449Z,14.25
2019-05-18T12:14:36.461Z,14.25
2019-05-18T12:17:06.513Z,14.21
2019-05-18T12:19:36.544Z,14.19
2019-05-18T12:22:06.535Z,14.22
2019-05-18T12:24:36.688Z,14.30
2019-05-18T12:27:06.730Z,14.35
2019-05-18T12:29:37.277Z,14.34
2019-05-18T12:32:07.279Z,14.42
2019-05-18T12:34:37.308Z,14.24
2019-05-18T12:37:08.991Z,14.35
2019-05-18T12:39:39.019Z,14.20
2019-05-18T12:42:09.148Z,14.49
2019-05-18T12:44:39.183Z,14.33
2019-05-18T12:47:09.243Z,14.18
2019-05-18T12:49:39.305Z,14.30
2019-05-18T12:52:09.404Z,14.43
2019-05-18T12:54:46.697Z,14.51
2019-05-18T12:57:11.344Z,14.34
2019-05-18T12:59:41.387Z,14.60
2019-05-18T13:02:11.424Z,14.59
2019-05-18T13:04:42.101Z,14.49
2019-05-18T13:07:12.247Z,14.62
2019-05-18T13:09:42.225Z,14.61
2019-05-18T13:12:12.785Z,14.64
2019-05-18T13:14:42.780Z,14.65
2019-05-18T13:17:12.798Z,14.59
2019-05-18T13:19:42.856Z,14.64
2019-05-18T13:22:12.856Z,14.73
2019-05-18T13:24:45.272Z,14.93
2019-05-18T13:27:14.584Z,14.85
2019-05-18T13:29:44.597Z,14.74
2019-05-18T13:32:14.716Z,14.69
2019-05-18T13:52:58.777Z,15.36
2019-05-18T13:55:28.764Z,15.53
2019-05-18T13:57:58.897Z,15.98
2019-05-18T14:00:28.891Z,15.62
2019-05-18T14:02:59.040Z,15.66
2019-05-18T14:05:29.199Z,15.84
2019-05-18T14:07:59.184Z,15.95
2019-05-18T14:10:29.181Z,15.86
2019-05-18T14:12:59.226Z,15.93
2019-05-18T14:15:29.224Z,16.29
2019-05-18T14:17:59.275Z,16.36
2019-05-18T14:20:29.262Z,16.46
2019-05-18T14:22:59.319Z,16.57
2019-05-18T14:25:29.364Z,16.76
2019-05-18T14:27:59.415Z,16.81
2019-05-18T14:30:29.486Z,16.79
2019-05-18T14:32:59.470Z,16.45
2019-05-18T14:35:29.540Z,16.83
2019-05-18T14:37:59.536Z,16.76
2019-05-18T14:40:29.553Z,16.85
2019-05-18T14:43:00.638Z,16.71
2019-05-18T14:45:30.630Z,16.89
2019-05-18T14:48:00.687Z,16.85
2019-05-18T14:50:30.686Z,16.98
2019-05-18T14:53:00.754Z,16.90
2019-05-18T14:55:33.758Z,17.03
2019-05-18T14:58:02.566Z,17.06
2019-05-18T15:00:32.838Z,17.06
2019-05-18T15:03:02.923Z,16.99
2019-05-18T15:05:32.905Z,17.18
2019-05-18T15:08:02.991Z,17.20
2019-05-18T15:10:35.265Z,17.18
2019-05-18T15:13:05.508Z,17.08
2019-05-18T15:15:35.623Z,17.02
2019-05-18T15:18:05.609Z,16.94
2019-05-18T15:20:35.713Z,17.08
2019-05-18T15:23:05.702Z,16.99
2019-05-18T15:25:49.743Z,17.18
2019-05-18T15:28:07.390Z,17.12
2019-05-18T15:30:37.520Z,16.94
2019-05-18T15:33:07.645Z,17.07
2019-05-18T15:35:37.661Z,17.13
2019-05-18T15:38:07.726Z,17.05
2019-05-18T15:40:37.718Z,17.13
2019-05-18T15:43:07.909Z,17.06
2019-05-18T15:45:37.900Z,17.10
2019-05-18T15:48:07.924Z,17.04
2019-05-18T15:50:37.914Z,17.11
2019-05-18T15:53:08.085Z,17.00
2019-05-18T15:55:38.199Z,17.11
2019-05-18T15:58:08.194Z,17.02
2019-05-18T16:00:38.205Z,17.11
2019-05-18T16:03:08.240Z,17.13
2019-05-18T16:05:38.240Z,17.09
2019-05-18T16:08:08.239Z,17.09
2019-05-18T16:10:38.325Z,17.02
2019-05-18T16:13:08.434Z,17.06
2019-05-18T16:15:38.501Z,16.98
2019-05-18T16:18:08.659Z,17.16
2019-05-18T16:20:38.692Z,17.14
2019-05-18T16:23:08.698Z,17.18
2019-05-18T16:25:38.861Z,17.23
2019-05-18T16:28:08.869Z,17.28
2019-05-18T16:30:39.050Z,17.28
2019-05-18T16:33:09.143Z,17.62
2019-05-18T16:35:39.256Z,19.29
2019-05-18T16:38:09.380Z,19.84
2019-05-18T16:40:39.428Z,19.56
2019-05-18T16:43:09.955Z,19.74
2019-05-18T16:45:40.011Z,19.78
2019-05-18T16:48:10.083Z,19.58
2019-05-18T16:50:40.093Z,19.68
2019-05-18T16:53:10.102Z,19.96
2019-05-18T16:55:40.209Z,19.96
2019-05-18T16:58:10.304Z,20.44
2019-05-18T17:00:40.367Z,20.48
2019-05-18T17:03:10.350Z,20.53
2019-05-18T17:05:40.425Z,20.18
2019-05-18T17:08:10.404Z,20.79
2019-05-18T17:10:40.405Z,20.69
2019-05-18T17:13:10.645Z,19.93
2019-05-18T17:15:40.633Z,19.60
2019-05-18T17:18:10.686Z,18.55
2019-05-18T17:20:40.865Z,17.86
2019-05-18T17:23:10.950Z,17.69
2019-05-18T17:25:41.208Z,18.14
2019-05-18T17:28:12.334Z,17.18
2019-05-18T17:30:42.945Z,17.11
2019-05-18T17:33:13.052Z,17.09
2019-05-18T17:35:57.952Z,16.63
2019-05-18T17:38:14.824Z,18.30
2019-05-18T17:40:44.830Z,19.51
2019-05-18T17:43:14.894Z,20.07
2019-05-18T17:45:44.990Z,20.43
2019-05-18T17:48:15.085Z,20.29
2019-05-18T17:50:45.162Z,20.22
2019-05-18T17:53:15.217Z,19.83
2019-05-18T17:55:45.242Z,20.04
2019-05-18T17:58:15.380Z,20.17
2019-05-18T18:00:46.500Z,20.12
2019-05-18T18:03:16.557Z,20.17
2019-05-18T18:05:46.601Z,20.08
2019-05-18T18:08:16.672Z,19.76
2019-05-18T18:10:46.787Z,20.27
2019-05-18T18:13:16.855Z,20.05
2019-05-18T18:15:46.904Z,19.93
2019-05-18T18:18:16.995Z,20.09
2019-05-18T18:20:46.994Z,19.79
2019-05-18T18:23:17.061Z,19.61
2019-05-18T18:25:47.147Z,19.92
2019-05-18T18:28:17.294Z,19.99
2019-05-18T18:30:47.370Z,19.46
2019-05-18T18:33:17.365Z,17.15
2019-05-18T18:35:47.469Z,16.75
2019-05-18T18:38:17.466Z,16.57
2019-05-18T18:40:47.652Z,16.41
2019-05-18T18:43:20.404Z,16.24
2019-05-18T18:45:49.509Z,16.22
2019-05-18T18:48:19.583Z,16.25
2019-05-18T18:50:49.633Z,16.25
2019-05-18T18:53:19.620Z,16.27
2019-05-18T18:55:49.678Z,16.16
2019-05-18T18:58:19.837Z,16.12
2019-05-18T19:00:50.871Z,15.94
2019-05-18T19:03:20.867Z,15.99
2019-05-18T19:05:50.996Z,15.92
2019-05-18T19:08:20.972Z,15.78
2019-05-18T19:10:51.117Z,15.75
2019-05-18T19:13:21.109Z,15.59
2019-05-18T19:15:52.252Z,15.56
2019-05-18T19:18:22.283Z,15.43
2019-05-18T19:20:53.327Z,15.31
2019-05-18T19:23:23.402Z,15.39
2019-05-18T19:25:53.433Z,15.25
2019-05-18T19:28:23.434Z,15.32
2019-05-18T19:30:53.486Z,15.27
2019-05-18T19:33:23.506Z,15.25
2019-05-18T19:35:53.552Z,15.30
2019-05-18T19:38:23.673Z,15.35
2019-05-18T19:40:53.735Z,15.38
2019-05-18T19:43:23.757Z,15.46
2019-05-18T19:45:53.754Z,15.43
2019-05-18T19:48:23.811Z,15.34
2019-05-18T19:50:53.809Z,15.30
2019-05-18T19:53:23.873Z,15.28
2019-05-18T19:55:53.846Z,15.24
2019-05-18T19:58:23.868Z,15.18
2019-05-18T20:00:53.946Z,15.22
2019-05-18T20:03:24.004Z,15.18
2019-05-18T20:05:54.042Z,15.10
2019-05-18T20:08:24.013Z,15.04
2019-05-18T20:10:54.059Z,14.98
2019-05-18T20:13:24.046Z,14.99
2019-05-18T20:15:54.071Z,15.02
2019-05-18T20:18:24.098Z,14.96
2019-05-18T20:20:54.084Z,14.95
2019-05-18T20:23:24.123Z,14.91
2019-05-18T20:25:54.107Z,14.88
2019-05-18T20:28:25.225Z,14.89
2019-05-18T20:30:55.222Z,14.90
2019-05-18T20:33:25.298Z,14.80
2019-05-18T20:35:55.359Z,14.71
2019-05-18T20:38:25.355Z,14.68
2019-05-18T20:40:55.481Z,14.46
2019-05-18T20:43:25.509Z,14.42
2019-05-18T20:45:55.524Z,14.38
2019-05-18T20:48:25.676Z,14.49
2019-05-18T20:50:55.669Z,14.30
2019-05-18T20:53:25.723Z,14.40
2019-05-18T20:55:55.731Z,14.26
2019-05-18T20:58:38.623Z,14.38
2019-05-18T21:00:57.730Z,14.47
2019-05-18T21:03:27.822Z,14.41
2019-05-18T21:05:57.886Z,14.37
2019-05-18T21:08:28.056Z,14.40
2019-05-18T21:10:58.174Z,14.41
2019-05-18T21:13:28.265Z,14.40
2019-05-18T21:15:58.417Z,14.30
2019-05-18T21:18:28.543Z,14.30
2019-05-18T21:20:58.632Z,14.32
2019-05-18T21:23:28.647Z,14.30
2019-05-18T21:25:58.675Z,14.21
2019-05-18T21:28:28.742Z,14.06
2019-05-18T21:30:58.730Z,13.92
2019-05-18T21:33:28.803Z,14.00
2019-05-18T21:35:58.807Z,14.08
2019-05-18T21:38:28.879Z,14.18
2019-05-18T21:40:58.974Z,14.17
2019-05-18T21:43:29.020Z,14.10
2019-05-18T21:45:59.040Z,14.18
2019-05-18T21:48:29.140Z,14.15
2019-05-18T21:50:59.198Z,14.10
2019-05-18T21:53:29.234Z,14.08
2019-05-18T21:56:00.454Z,14.04
2019-05-18T21:58:30.455Z,14.05
2019-05-18T22:01:00.926Z,14.03
2019-05-18T22:03:31.133Z,14.05
2019-05-18T22:06:01.218Z,13.99
2019-05-18T22:08:31.283Z,13.78
2019-05-18T22:11:01.398Z,13.93
2019-05-18T22:13:31.493Z,13.99
2019-05-18T22:16:02.694Z,13.95
2019-05-18T22:18:32.730Z,13.92
2019-05-18T22:21:02.728Z,13.81
2019-05-18T22:23:32.744Z,13.91
2019-05-18T22:26:02.840Z,13.88
2019-05-18T22:28:32.930Z,13.84
2019-05-18T22:31:03.042Z,13.79
2019-05-18T22:33:33.033Z,13.78
2019-05-18T22:36:03.069Z,13.86
2019-05-18T22:38:33.098Z,13.83
2019-05-18T22:41:03.112Z,13.88
2019-05-18T22:43:33.124Z,13.86
2019-05-18T22:46:03.293Z,13.83
2019-05-18T22:48:41.319Z,13.84
2019-05-18T22:51:05.030Z,13.76
2019-05-18T22:53:35.217Z,13.85
2019-05-18T22:56:05.357Z,13.77
2019-05-18T22:58:35.439Z,13.78
2019-05-18T23:01:05.588Z,13.83
2019-05-18T23:03:35.694Z,13.85
2019-05-18T23:06:05.748Z,13.73
2019-05-18T23:08:35.773Z,13.75
2019-05-18T23:11:05.878Z,13.73
2019-05-18T23:13:36.812Z,13.75
2019-05-18T23:16:06.824Z,13.69
2019-05-18T23:18:36.860Z,13.67
2019-05-18T23:21:08.445Z,13.62
2019-05-18T23:23:38.434Z,13.60
2019-05-18T23:26:11.563Z,13.66
2019-05-18T23:28:40.185Z,13.57
2019-05-18T23:31:10.279Z,13.60
2019-05-18T23:33:40.318Z,13.62
2019-05-18T23:36:10.693Z,13.64
2019-05-18T23:38:40.823Z,13.66
2019-05-18T23:41:10.860Z,13.60
2019-05-18T23:43:40.875Z,13.57
2019-05-18T23:46:10.902Z,13.56
2019-05-18T23:48:40.886Z,13.60
2019-05-18T23:51:10.932Z,13.60
2019-05-18T23:53:41.009Z,13.55
2019-05-18T23:56:11.069Z,13.57
2019-05-18T23:58:41.158Z,13.51
